CheckWX is a tool to help pilots better visualize weather data.  It is not intended as a substitute for an official pre-flight weather briefing.

18:14:04 UTC

CYAM METAR
Sault Ste Marie Airport
Sault Ste Marie, Canada
Current

1 hour ago

CYAM 241700Z VRB02KT 15SM FEW090 FEW180 11/M03 A2995 RMK ACC1AC1 ACC TR AC TR SLP149
Observed
Apr-24 @ 17:00 UTC
Wind
  • Variable at 2 KTS
Visibility
15 SM
Flight Rules
VFR
Cloud Levels
  • Few at 9,000' AGL
  • Few at 18,000' AGL
Temperature
11°C / 52°F
Dewpoint
-3°C / 27°F
Humidity
38%
Altimeter
29.95" Hg
Pressure
1014.22 hPa
Previous

2 hours ago

CYAM 241600Z VRB03KT 15SM FEW180 FEW230 09/M01 A2998 RMK AC1CC1 SLP159
Observed
Apr-24 @ 16:00 UTC
Wind
  • Variable at 3 KTS
Visibility
15 SM
Flight Rules
VFR
Cloud Levels
  • Few at 18,000' AGL
  • Few at 23,000' AGL
Temperature
C / 48°F
Dewpoint
-1°C / 30°F
Humidity
50%
Altimeter
29.98" Hg
Pressure
1015.22 hPa
Previous

3 hours ago

CYAM 241500Z 23004KT 200V280 15SM FEW240 07/M02 A3000 RMK CC1 SLP168
Observed
Apr-24 @ 15:00 UTC
Wind
  • 230° at 4 KTS
Visibility
15 SM
Flight Rules
VFR
Cloud Levels
  • Few at 24,000' AGL
Temperature
C / 45°F
Dewpoint
-2°C / 28°F
Humidity
53%
Altimeter
30" Hg
Pressure
1015.92 hPa